Airfield :
LOGIN :

Register | Disclaimer

   EN    FR    IT 

 










Legend :    VFR   Marginal VFR   IFR   Intensive IFR   Very Intensive IFR
Visi :
Ceiling :
>= 8 km
>= 3000ft
5 to 8 km
1000 to 3000 ft
1500m to 5 km
500 to 1000 ft
800 to 1500m
200 to 500 ft
< 800m
< 200 ft
Symbols :   Thunderstorms  Fog  Heavy snow  Heavy precipitations  Wind > 20 kt
SIGMETs :     Misc.  Thunderstorms  Icing  Turbulence  Mountain Waves  Volcanic Ashes






- Airport Elevation : 1 ft


EGCK - Caernarfon

CURRENT METAR :
  • 161220Z 18012KT 9999 SCT026 BKN038 16/12 Q1017

EXPIRED METARs :
  • 161150Z 17012KT 130V190 9999 SCT024 BKN036 15/11 Q1018
  • 161120Z 18011KT 9999 SCT012 BKN031 15/12 Q1018
  • 161050Z 18010KT 9999 FEW023 SCT041 14/11 Q1018
  • 161020Z 18011KT 9999 SCT026 BKN048 14/11 Q1018
  • 160950Z 18009KT 9999 FEW018 SCT032 14/11 Q1018

TAF TAF EGCK
Valid from the 16 at 12:00 until the 16 at 21:00 UTC


161100Z 1612/1621 19009KT 9999 SCT035
PROB30
TEMPO 1612/1619 6000 -RADZ BKN012
PROB30
TEMPO 1619/1621 21015G25KT 6000 RA BKN012



MET'MAP, your aeronautical weather chart ! - Copyright ORBIFLY December 2007 - Disclaimer

ORBIFLY MET'MAP TEAM :

Programming & Development : Alexandra Zaïnal
Concept & original design : Baudouin d'Aumeries
Assistance for programming : Marc-Olivier Méhu
Technical & hardware support : Manuel Goepfert

Contact : metmap@orbifly.com




SOURCES & CREDITS :

   NOAA